sensor_id;sensor_type;location;lat;lon;timestamp;P1;durP1;ratioP1;P2;durP2;ratioP2
1024;SDS011;501;48.214;11.350;2023-08-12T00:01:48;7.70;;;6.37;;
1024;SDS011;501;48.214;11.350;2023-08-12T00:04:13;6.90;;;6.20;;
1024;SDS011;501;48.214;11.350;2023-08-12T00:06:40;7.50;;;5.90;;
1024;SDS011;501;48.214;11.350;2023-08-12T00:09:06;7.97;;;7.00;;
1024;SDS011;501;48.214;11.350;2023-08-12T00:11:34;7.80;;;7.07;;
1024;SDS011;501;48.214;11.350;2023-08-12T00:14:00;6.70;;;6.10;;
1024;SDS011;501;48.214;11.350;2023-08-12T00:16:25;7.20;;;6.50;;
1024;SDS011;501;48.214;11.350;2023-08-12T00:18:51;8.67;;;6.20;;
1024;SDS011;501;48.214;11.350;2023-08-12T00:21:17;6.60;;;6.00;;
1024;SDS011;501;48.214;11.350;2023-08-12T00:23:42;6.50;;;5.90;;
1024;SDS011;501;48.214;11.350;2023-08-12T00:26:09;6.20;;;5.57;;
1024;SDS011;501;48.214;11.350;2023-08-12T00:28:35;5.97;;;5.47;;
1024;SDS011;501;48.214;11.350;2023-08-12T00:31:01;7.17;;;6.47;;
1024;SDS011;501;48.214;11.350;2023-08-12T00:33:27;6.37;;;5.77;;
1024;SDS011;501;48.214;11.350;2023-08-12T00:35:53;7.00;;;6.40;;
1024;SDS011;501;48.214;11.350;2023-08-12T00:38:19;7.17;;;6.47;;
1024;SDS011;501;48.214;11.350;2023-08-12T00:40:45;7.13;;;6.53;;
1024;SDS011;501;48.214;11.350;2023-08-12T00:43:10;6.50;;;5.90;;
1024;SDS011;501;48.214;11.350;2023-08-12T00:45:36;7.00;;;6.40;;
1024;SDS011;501;48.214;11.350;2023-08-12T00:48:05;7.37;;;6.67;;
1024;SDS011;501;48.214;11.350;2023-08-12T00:50:32;6.60;;;5.90;;
1024;SDS011;501;48.214;11.350;2023-08-12T00:52:58;7.17;;;6.47;;
1024;SDS011;501;48.214;11.350;2023-08-12T00:55:25;7.27;;;6.30;;
1024;SDS011;501;48.214;11.350;2023-08-12T00:57:50;6.80;;;6.20;;
1024;SDS011;501;48.214;11.350;2023-08-12T01:00:16;6.60;;;6.00;;
1024;SDS011;501;48.214;11.350;2023-08-12T01:02:47;7.80;;;6.40;;
1024;SDS011;501;48.214;11.350;2023-08-12T01:05:14;6.47;;;5.87;;
1024;SDS011;501;48.214;11.350;2023-08-12T01:07:43;6.40;;;5.80;;
1024;SDS011;501;48.214;11.350;2023-08-12T01:10:11;6.10;;;5.50;;
1024;SDS011;501;48.214;11.350;2023-08-12T01:12:41;6.40;;;5.80;;
1024;SDS011;501;48.214;11.350;2023-08-12T01:15:23;6.47;;;5.83;;
1024;SDS011;501;48.214;11.350;2023-08-12T01:17:51;6.67;;;5.97;;
1024;SDS011;501;48.214;11.350;2023-08-12T01:20:22;10.57;;;6.07;;
1024;SDS011;501;48.214;11.350;2023-08-12T01:22:59;7.43;;;5.77;;
1024;SDS011;501;48.214;11.350;2023-08-12T01:25:39;6.43;;;5.93;;
1024;SDS011;501;48.214;11.350;2023-08-12T01:28:06;6.27;;;5.67;;
1024;SDS011;501;48.214;11.350;2023-08-12T01:30:33;6.20;;;5.70;;
1024;SDS011;501;48.214;11.350;2023-08-12T01:33:05;7.63;;;6.63;;
1024;SDS011;501;48.214;11.350;2023-08-12T01:35:46;7.40;;;6.10;;
1024;SDS011;501;48.214;11.350;2023-08-12T01:38:15;6.83;;;6.23;;
1024;SDS011;501;48.214;11.350;2023-08-12T01:40:43;6.90;;;6.30;;
1024;SDS011;501;48.214;11.350;2023-08-12T01:43:10;7.80;;;6.80;;
1024;SDS011;501;48.214;11.350;2023-08-12T01:45:36;6.57;;;5.90;;
1024;SDS011;501;48.214;11.350;2023-08-12T01:48:03;7.07;;;6.30;;
1024;SDS011;501;48.214;11.350;2023-08-12T01:50:29;7.97;;;5.90;;
1024;SDS011;501;48.214;11.350;2023-08-12T01:52:54;6.27;;;5.77;;
1024;SDS011;501;48.214;11.350;2023-08-12T01:55:20;7.37;;;6.77;;
1024;SDS011;501;48.214;11.350;2023-08-12T01:57:45;7.37;;;5.97;;
1024;SDS011;501;48.214;11.350;2023-08-12T02:00:11;6.93;;;6.33;;
1024;SDS011;501;48.214;11.350;2023-08-12T02:02:37;7.67;;;7.03;;
1024;SDS011;501;48.214;11.350;2023-08-12T02:05:02;8.13;;;6.67;;
1024;SDS011;501;48.214;11.350;2023-08-12T02:07:28;7.83;;;6.77;;
1024;SDS011;501;48.214;11.350;2023-08-12T02:09:54;7.60;;;6.80;;
1024;SDS011;501;48.214;11.350;2023-08-12T02:12:19;7.97;;;7.27;;
1024;SDS011;501;48.214;11.350;2023-08-12T02:14:45;7.30;;;6.53;;
1024;SDS011;501;48.214;11.350;2023-08-12T02:17:11;8.37;;;7.57;;
1024;SDS011;501;48.214;11.350;2023-08-12T02:19:36;7.90;;;7.10;;
1024;SDS011;501;48.214;11.350;2023-08-12T02:22:02;9.20;;;7.27;;
1024;SDS011;501;48.214;11.350;2023-08-12T02:24:28;8.60;;;7.70;;
1024;SDS011;501;48.214;11.350;2023-08-12T02:26:54;7.53;;;6.83;;
1024;SDS011;501;48.214;11.350;2023-08-12T02:29:20;9.23;;;7.57;;
1024;SDS011;501;48.214;11.350;2023-08-12T02:31:45;6.43;;;5.87;;
1024;SDS011;501;48.214;11.350;2023-08-12T02:34:11;7.67;;;6.90;;
1024;SDS011;501;48.214;11.350;2023-08-12T02:36:36;7.83;;;7.03;;
1024;SDS011;501;48.214;11.350;2023-08-12T02:39:02;7.23;;;6.53;;
1024;SDS011;501;48.214;11.350;2023-08-12T02:41:29;10.30;;;7.50;;
1024;SDS011;501;48.214;11.350;2023-08-12T02:43:55;6.83;;;6.17;;
1024;SDS011;501;48.214;11.350;2023-08-12T02:46:21;8.23;;;7.43;;
1024;SDS011;501;48.214;11.350;2023-08-12T02:48:47;7.87;;;7.10;;
1024;SDS011;501;48.214;11.350;2023-08-12T02:51:13;7.40;;;6.80;;
1024;SDS011;501;48.214;11.350;2023-08-12T02:53:38;6.67;;;5.73;;
1024;SDS011;501;48.214;11.350;2023-08-12T02:56:04;7.77;;;7.03;;
1024;SDS011;501;48.214;11.350;2023-08-12T02:58:30;8.27;;;7.17;;
1024;SDS011;501;48.214;11.350;2023-08-12T03:00:55;7.30;;;6.70;;
1024;SDS011;501;48.214;11.350;2023-08-12T03:03:21;6.70;;;6.10;;
1024;SDS011;501;48.214;11.350;2023-08-12T03:05:47;7.43;;;6.73;;
1024;SDS011;501;48.214;11.350;2023-08-12T03:08:13;8.50;;;6.70;;
1024;SDS011;501;48.214;11.350;2023-08-12T03:10:39;7.87;;;7.07;;
1024;SDS011;501;48.214;11.350;2023-08-12T03:13:05;8.03;;;7.27;;
1024;SDS011;501;48.214;11.350;2023-08-12T03:15:31;8.07;;;7.37;;
1024;SDS011;501;48.214;11.350;2023-08-12T03:17:56;7.70;;;7.00;;
1024;SDS011;501;48.214;11.350;2023-08-12T03:20:22;7.03;;;6.43;;
1024;SDS011;501;48.214;11.350;2023-08-12T03:22:48;12.53;;;7.57;;
1024;SDS011;501;48.214;11.350;2023-08-12T03:25:14;7.90;;;6.80;;
1024;SDS011;501;48.214;11.350;2023-08-12T03:27:42;6.90;;;6.30;;
1024;SDS011;501;48.214;11.350;2023-08-12T03:30:08;7.67;;;6.97;;
1024;SDS011;501;48.214;11.350;2023-08-12T03:32:34;7.70;;;6.90;;
1024;SDS011;501;48.214;11.350;2023-08-12T03:35:00;9.50;;;6.87;;
1024;SDS011;501;48.214;11.350;2023-08-12T03:37:25;7.20;;;6.60;;
1024;SDS011;501;48.214;11.350;2023-08-12T03:39:51;7.90;;;7.17;;
1024;SDS011;501;48.214;11.350;2023-08-12T03:42:17;6.90;;;6.30;;
1024;SDS011;501;48.214;11.350;2023-08-12T03:44:43;6.80;;;6.10;;
1024;SDS011;501;48.214;11.350;2023-08-12T03:47:09;9.53;;;6.20;;
1024;SDS011;501;48.214;11.350;2023-08-12T03:49:35;7.07;;;6.47;;
1024;SDS011;501;48.214;11.350;2023-08-12T03:52:01;9.73;;;6.30;;
1024;SDS011;501;48.214;11.350;2023-08-12T03:54:27;6.90;;;6.30;;
1024;SDS011;501;48.214;11.350;2023-08-12T03:56:52;7.40;;;6.63;;
1024;SDS011;501;48.214;11.350;2023-08-12T03:59:18;7.80;;;6.53;;
1024;SDS011;501;48.214;11.350;2023-08-12T04:01:43;6.83;;;6.03;;
1024;SDS011;501;48.214;11.350;2023-08-12T04:04:09;8.00;;;6.50;;
1024;SDS011;501;48.214;11.350;2023-08-12T04:06:35;7.43;;;6.63;;
1024;SDS011;501;48.214;11.350;2023-08-12T04:09:01;7.80;;;7.10;;
1024;SDS011;501;48.214;11.350;2023-08-12T04:11:27;7.80;;;7.10;;
1024;SDS011;501;48.214;11.350;2023-08-12T04:13:53;7.83;;;7.13;;
1024;SDS011;501;48.214;11.350;2023-08-12T04:16:18;7.73;;;6.83;;
1024;SDS011;501;48.214;11.350;2023-08-12T04:18:44;6.07;;;5.57;;
1024;SDS011;501;48.214;11.350;2023-08-12T04:21:09;7.90;;;7.20;;
1024;SDS011;501;48.214;11.350;2023-08-12T04:23:36;7.33;;;6.60;;
1024;SDS011;501;48.214;11.350;2023-08-12T04:26:01;7.27;;;6.63;;
1024;SDS011;501;48.214;11.350;2023-08-12T04:28:27;8.27;;;7.00;;
1024;SDS011;501;48.214;11.350;2023-08-12T04:30:53;7.70;;;7.00;;
1024;SDS011;501;48.214;11.350;2023-08-12T04:33:18;6.93;;;6.23;;
1024;SDS011;501;48.214;11.350;2023-08-12T04:35:47;13.03;;;6.87;;
1024;SDS011;501;48.214;11.350;2023-08-12T04:38:12;7.60;;;6.90;;
1024;SDS011;501;48.214;11.350;2023-08-12T04:40:38;7.17;;;6.20;;
1024;SDS011;501;48.214;11.350;2023-08-12T04:43:05;7.53;;;6.73;;
1024;SDS011;501;48.214;11.350;2023-08-12T04:45:30;6.57;;;5.97;;
1024;SDS011;501;48.214;11.350;2023-08-12T04:47:57;7.40;;;6.70;;
1024;SDS011;501;48.214;11.350;2023-08-12T04:50:22;6.90;;;6.30;;
1024;SDS011;501;48.214;11.350;2023-08-12T04:52:48;6.90;;;6.20;;
1024;SDS011;501;48.214;11.350;2023-08-12T04:55:14;7.23;;;6.53;;
1024;SDS011;501;48.214;11.350;2023-08-12T04:57:39;7.43;;;6.63;;
1024;SDS011;501;48.214;11.350;2023-08-12T05:00:05;6.43;;;5.83;;
1024;SDS011;501;48.214;11.350;2023-08-12T05:02:34;6.60;;;6.00;;
1024;SDS011;501;48.214;11.350;2023-08-12T05:05:00;6.73;;;5.70;;
1024;SDS011;501;48.214;11.350;2023-08-12T05:07:26;9.17;;;7.37;;
1024;SDS011;501;48.214;11.350;2023-08-12T05:09:52;6.60;;;6.00;;
1024;SDS011;501;48.214;11.350;2023-08-12T05:12:17;7.90;;;7.10;;
1024;SDS011;501;48.214;11.350;2023-08-12T05:14:43;6.87;;;6.27;;
1024;SDS011;501;48.214;11.350;2023-08-12T05:17:09;6.77;;;6.17;;
1024;SDS011;501;48.214;11.350;2023-08-12T05:19:34;6.60;;;6.10;;
1024;SDS011;501;48.214;11.350;2023-08-12T05:22:00;7.40;;;6.70;;
1024;SDS011;501;48.214;11.350;2023-08-12T05:24:26;6.90;;;6.30;;
1024;SDS011;501;48.214;11.350;2023-08-12T05:26:51;6.70;;;6.10;;
1024;SDS011;501;48.214;11.350;2023-08-12T05:29:17;7.03;;;5.90;;
1024;SDS011;501;48.214;11.350;2023-08-12T05:31:43;7.10;;;6.43;;
1024;SDS011;501;48.214;11.350;2023-08-12T05:34:09;6.80;;;5.93;;
1024;SDS011;501;48.214;11.350;2023-08-12T05:36:35;6.90;;;6.30;;
1024;SDS011;501;48.214;11.350;2023-08-12T05:39:01;6.60;;;6.00;;
1024;SDS011;501;48.214;11.350;2023-08-12T05:41:28;6.90;;;6.30;;
1024;SDS011;501;48.214;11.350;2023-08-12T05:43:54;7.13;;;6.37;;
1024;SDS011;501;48.214;11.350;2023-08-12T05:46:19;7.17;;;6.50;;
1024;SDS011;501;48.214;11.350;2023-08-12T05:48:45;7.47;;;6.77;;
1024;SDS011;501;48.214;11.350;2023-08-12T05:51:11;7.40;;;6.70;;
1024;SDS011;501;48.214;11.350;2023-08-12T05:53:37;6.77;;;6.17;;
1024;SDS011;501;48.214;11.350;2023-08-12T05:56:02;7.00;;;6.40;;
1024;SDS011;501;48.214;11.350;2023-08-12T05:58:28;7.07;;;6.17;;
1024;SDS011;501;48.214;11.350;2023-08-12T06:00:54;6.67;;;6.07;;
1024;SDS011;501;48.214;11.350;2023-08-12T06:03:19;6.87;;;6.20;;
1024;SDS011;501;48.214;11.350;2023-08-12T06:05:45;6.83;;;6.23;;
1024;SDS011;501;48.214;11.350;2023-08-12T06:08:12;6.10;;;5.50;;
1024;SDS011;501;48.214;11.350;2023-08-12T06:10:38;7.47;;;6.77;;
1024;SDS011;501;48.214;11.350;2023-08-12T06:13:03;6.73;;;6.03;;
1024;SDS011;501;48.214;11.350;2023-08-12T06:15:29;6.10;;;5.50;;
1024;SDS011;501;48.214;11.350;2023-08-12T06:17:55;5.70;;;5.20;;
1024;SDS011;501;48.214;11.350;2023-08-12T06:20:21;6.93;;;6.33;;
1024;SDS011;501;48.214;11.350;2023-08-12T06:22:47;5.80;;;5.30;;
1024;SDS011;501;48.214;11.350;2023-08-12T06:25:13;5.70;;;5.20;;
1024;SDS011;501;48.214;11.350;2023-08-12T06:27:38;6.47;;;5.80;;
1024;SDS011;501;48.214;11.350;2023-08-12T06:30:04;6.50;;;5.90;;
1024;SDS011;501;48.214;11.350;2023-08-12T06:32:31;6.67;;;6.07;;
1024;SDS011;501;48.214;11.350;2023-08-12T06:34:58;9.20;;;5.70;;
1024;SDS011;501;48.214;11.350;2023-08-12T06:37:24;6.37;;;5.70;;
1024;SDS011;501;48.214;11.350;2023-08-12T06:39:49;6.80;;;6.00;;
1024;SDS011;501;48.214;11.350;2023-08-12T06:42:15;5.87;;;5.47;;
1024;SDS011;501;48.214;11.350;2023-08-12T06:44:41;7.37;;;5.40;;
1024;SDS011;501;48.214;11.350;2023-08-12T06:47:07;5.50;;;5.00;;
1024;SDS011;501;48.214;11.350;2023-08-12T06:49:32;5.97;;;5.47;;
1024;SDS011;501;48.214;11.350;2023-08-12T06:51:58;6.50;;;6.00;;
1024;SDS011;501;48.214;11.350;2023-08-12T06:54:23;5.57;;;4.73;;
1024;SDS011;501;48.214;11.350;2023-08-12T06:56:49;5.77;;;5.27;;
1024;SDS011;501;48.214;11.350;2023-08-12T06:59:15;6.00;;;5.50;;
1024;SDS011;501;48.214;11.350;2023-08-12T07:01:41;5.63;;;4.80;;
1024;SDS011;501;48.214;11.350;2023-08-12T07:04:06;6.40;;;5.57;;
1024;SDS011;501;48.214;11.350;2023-08-12T07:06:32;5.23;;;4.83;;
1024;SDS011;501;48.214;11.350;2023-08-12T07:08:57;5.70;;;5.20;;
1024;SDS011;501;48.214;11.350;2023-08-12T07:11:23;5.83;;;5.27;;
1024;SDS011;501;48.214;11.350;2023-08-12T07:13:49;6.10;;;5.10;;
1024;SDS011;501;48.214;11.350;2023-08-12T07:16:14;5.77;;;5.00;;
1024;SDS011;501;48.214;11.350;2023-08-12T07:18:40;5.23;;;4.83;;
1024;SDS011;501;48.214;11.350;2023-08-12T07:21:05;6.13;;;5.23;;
1024;SDS011;501;48.214;11.350;2023-08-12T07:23:31;5.80;;;5.30;;
1024;SDS011;501;48.214;11.350;2023-08-12T07:25:57;4.90;;;4.50;;
1024;SDS011;501;48.214;11.350;2023-08-12T07:28:22;5.90;;;5.40;;
1024;SDS011;501;48.214;11.350;2023-08-12T07:30:48;4.70;;;4.30;;
1024;SDS011;501;48.214;11.350;2023-08-12T07:33:15;4.60;;;4.30;;
1024;SDS011;501;48.214;11.350;2023-08-12T07:35:41;5.57;;;5.13;;
1024;SDS011;501;48.214;11.350;2023-08-12T07:38:06;5.90;;;5.40;;
1024;SDS011;501;48.214;11.350;2023-08-12T07:40:32;5.43;;;4.80;;
1024;SDS011;501;48.214;11.350;2023-08-12T07:42:58;5.53;;;5.13;;
1024;SDS011;501;48.214;11.350;2023-08-12T07:45:24;4.63;;;4.23;;
1024;SDS011;501;48.214;11.350;2023-08-12T07:47:49;5.20;;;4.80;;
1024;SDS011;501;48.214;11.350;2023-08-12T07:50:15;5.73;;;5.27;;
1024;SDS011;501;48.214;11.350;2023-08-12T07:52:41;5.60;;;5.10;;
1024;SDS011;501;48.214;11.350;2023-08-12T07:55:07;4.97;;;4.53;;
1024;SDS011;501;48.214;11.350;2023-08-12T07:57:33;4.97;;;4.57;;
1024;SDS011;501;48.214;11.350;2023-08-12T07:59:58;5.27;;;4.87;;
1024;SDS011;501;48.214;11.350;2023-08-12T08:02:24;4.70;;;4.30;;
1024;SDS011;501;48.214;11.350;2023-08-12T08:04:50;5.60;;;4.70;;
1024;SDS011;501;48.214;11.350;2023-08-12T08:07:15;5.30;;;4.80;;
1024;SDS011;501;48.214;11.350;2023-08-12T08:09:42;5.17;;;4.67;;
1024;SDS011;501;48.214;11.350;2023-08-12T08:12:08;5.00;;;4.60;;
1024;SDS011;501;48.214;11.350;2023-08-12T08:14:35;5.10;;;4.70;;
1024;SDS011;501;48.214;11.350;2023-08-12T08:17:00;4.43;;;4.13;;
1024;SDS011;501;48.214;11.350;2023-08-12T08:19:26;5.67;;;5.17;;
1024;SDS011;501;48.214;11.350;2023-08-12T08:21:52;5.73;;;5.23;;
1024;SDS011;501;48.214;11.350;2023-08-12T08:24:17;6.40;;;5.03;;
1024;SDS011;501;48.214;11.350;2023-08-12T08:26:43;4.00;;;3.70;;
1024;SDS011;501;48.214;11.350;2023-08-12T08:29:10;4.90;;;4.50;;
1024;SDS011;501;48.214;11.350;2023-08-12T08:31:36;5.00;;;4.60;;
1024;SDS011;501;48.214;11.350;2023-08-12T08:34:02;4.93;;;4.63;;
1024;SDS011;501;48.214;11.350;2023-08-12T08:36:27;5.20;;;4.80;;
1024;SDS011;501;48.214;11.350;2023-08-12T08:38:53;5.90;;;5.40;;
1024;SDS011;501;48.214;11.350;2023-08-12T08:41:19;4.73;;;4.27;;
1024;SDS011;501;48.214;11.350;2023-08-12T08:43:45;4.77;;;4.40;;
1024;SDS011;501;48.214;11.350;2023-08-12T08:46:14;5.13;;;4.73;;
1024;SDS011;501;48.214;11.350;2023-08-12T08:48:44;6.03;;;4.27;;
1024;SDS011;501;48.214;11.350;2023-08-12T08:51:10;5.37;;;4.97;;
1024;SDS011;501;48.214;11.350;2023-08-12T08:53:39;4.60;;;4.20;;
1024;SDS011;501;48.214;11.350;2023-08-12T08:56:06;4.90;;;4.60;;
1024;SDS011;501;48.214;11.350;2023-08-12T08:58:32;5.17;;;4.77;;
1024;SDS011;501;48.214;11.350;2023-08-12T09:00:58;4.87;;;4.50;;
1024;SDS011;501;48.214;11.350;2023-08-12T09:03:25;5.30;;;4.90;;
1024;SDS011;501;48.214;11.350;2023-08-12T09:05:51;5.33;;;4.80;;
1024;SDS011;501;48.214;11.350;2023-08-12T09:08:20;5.83;;;5.20;;
1024;SDS011;501;48.214;11.350;2023-08-12T09:10:46;5.57;;;5.17;;
1024;SDS011;501;48.214;11.350;2023-08-12T09:13:13;4.60;;;4.30;;
1024;SDS011;501;48.214;11.350;2023-08-12T09:15:40;5.13;;;4.83;;
1024;SDS011;501;48.214;11.350;2023-08-12T09:18:06;5.27;;;4.87;;
1024;SDS011;501;48.214;11.350;2023-08-12T09:20:32;5.90;;;4.87;;
1024;SDS011;501;48.214;11.350;2023-08-12T09:22:59;5.00;;;4.70;;
1024;SDS011;501;48.214;11.350;2023-08-12T09:25:28;5.57;;;5.03;;
1024;SDS011;501;48.214;11.350;2023-08-12T09:28:00;6.00;;;4.47;;
1024;SDS011;501;48.214;11.350;2023-08-12T09:30:28;5.17;;;4.83;;
1024;SDS011;501;48.214;11.350;2023-08-12T09:32:59;5.07;;;4.67;;
1024;SDS011;501;48.214;11.350;2023-08-12T09:35:31;5.43;;;4.97;;
1024;SDS011;501;48.214;11.350;2023-08-12T09:37:58;4.90;;;4.17;;
1024;SDS011;501;48.214;11.350;2023-08-12T09:40:25;5.20;;;4.80;;
1024;SDS011;501;48.214;11.350;2023-08-12T09:42:52;5.17;;;4.50;;
1024;SDS011;501;48.214;11.350;2023-08-12T09:45:17;7.70;;;5.10;;
1024;SDS011;501;48.214;11.350;2023-08-12T09:47:45;5.03;;;4.70;;
1024;SDS011;501;48.214;11.350;2023-08-12T09:50:11;5.23;;;4.83;;
1024;SDS011;501;48.214;11.350;2023-08-12T09:52:38;5.03;;;4.63;;
1024;SDS011;501;48.214;11.350;2023-08-12T09:55:05;4.57;;;4.20;;
1024;SDS011;501;48.214;11.350;2023-08-12T09:57:33;5.63;;;4.63;;
1024;SDS011;501;48.214;11.350;2023-08-12T10:00:01;4.63;;;4.23;;
1024;SDS011;501;48.214;11.350;2023-08-12T10:02:28;4.13;;;3.93;;
1024;SDS011;501;48.214;11.350;2023-08-12T10:04:54;5.27;;;4.37;;
1024;SDS011;501;48.214;11.350;2023-08-12T10:07:22;4.93;;;4.53;;
1024;SDS011;501;48.214;11.350;2023-08-12T10:09:48;5.23;;;4.83;;
1024;SDS011;501;48.214;11.350;2023-08-12T10:12:14;5.03;;;4.17;;
1024;SDS011;501;48.214;11.350;2023-08-12T10:14:40;5.00;;;4.53;;
1024;SDS011;501;48.214;11.350;2023-08-12T10:17:07;4.80;;;4.40;;
1024;SDS011;501;48.214;11.350;2023-08-12T10:19:34;4.60;;;4.30;;
1024;SDS011;501;48.214;11.350;2023-08-12T10:22:02;4.87;;;4.47;;
1024;SDS011;501;48.214;11.350;2023-08-12T10:24:28;4.27;;;3.97;;
1024;SDS011;501;48.214;11.350;2023-08-12T10:26:55;4.87;;;4.40;;
1024;SDS011;501;48.214;11.350;2023-08-12T10:29:22;5.13;;;4.60;;
1024;SDS011;501;48.214;11.350;2023-08-12T10:31:49;4.73;;;4.33;;
1024;SDS011;501;48.214;11.350;2023-08-12T10:34:22;5.10;;;4.70;;
1024;SDS011;501;48.214;11.350;2023-08-12T10:36:56;4.50;;;4.10;;
1024;SDS011;501;48.214;11.350;2023-08-12T10:39:25;4.20;;;3.90;;
1024;SDS011;501;48.214;11.350;2023-08-12T10:41:54;5.13;;;4.70;;
1024;SDS011;501;48.214;11.350;2023-08-12T10:44:21;4.90;;;4.23;;
1024;SDS011;501;48.214;11.350;2023-08-12T10:46:51;4.40;;;4.10;;
1024;SDS011;501;48.214;11.350;2023-08-12T10:49:21;5.17;;;4.77;;
1024;SDS011;501;48.214;11.350;2023-08-12T10:54:14;4.07;;;3.73;;
1024;SDS011;501;48.214;11.350;2023-08-12T10:57:03;7.17;;;4.00;;
1024;SDS011;501;48.214;11.350;2023-08-12T11:02:19;4.40;;;4.10;;
1024;SDS011;501;48.214;11.350;2023-08-12T11:04:52;4.40;;;4.00;;
1024;SDS011;501;48.214;11.350;2023-08-12T11:07:27;4.30;;;3.90;;
1024;SDS011;501;48.214;11.350;2023-08-12T11:09:58;4.40;;;4.00;;
1024;SDS011;501;48.214;11.350;2023-08-12T11:12:34;3.90;;;3.60;;
1024;SDS011;501;48.214;11.350;2023-08-12T11:15:01;3.80;;;3.50;;
1024;SDS011;501;48.214;11.350;2023-08-12T11:17:39;4.20;;;3.90;;
1024;SDS011;501;48.214;11.350;2023-08-12T11:20:09;4.43;;;3.97;;
1024;SDS011;501;48.214;11.350;2023-08-12T11:22:37;4.67;;;4.30;;
1024;SDS011;501;48.214;11.350;2023-08-12T11:25:04;5.10;;;4.60;;
1024;SDS011;501;48.214;11.350;2023-08-12T11:27:41;4.20;;;3.80;;
1024;SDS011;501;48.214;11.350;2023-08-12T11:30:09;4.50;;;4.10;;
1024;SDS011;501;48.214;11.350;2023-08-12T11:32:40;6.33;;;3.97;;
1024;SDS011;501;48.214;11.350;2023-08-12T11:35:11;4.00;;;3.70;;
1024;SDS011;501;48.214;11.350;2023-08-12T11:37:38;4.40;;;4.00;;
1024;SDS011;501;48.214;11.350;2023-08-12T11:40:04;4.30;;;3.90;;
1024;SDS011;501;48.214;11.350;2023-08-12T11:42:31;5.50;;;4.10;;
1024;SDS011;501;48.214;11.350;2023-08-12T11:44:57;3.93;;;3.63;;
1024;SDS011;501;48.214;11.350;2023-08-12T11:47:23;4.60;;;4.20;;
1024;SDS011;501;48.214;11.350;2023-08-12T11:49:49;4.10;;;3.20;;
1024;SDS011;501;48.214;11.350;2023-08-12T11:52:14;4.27;;;3.70;;
1024;SDS011;501;48.214;11.350;2023-08-12T11:54:40;3.80;;;3.40;;
1024;SDS011;501;48.214;11.350;2023-08-12T11:57:06;4.17;;;3.87;;
1024;SDS011;501;48.214;11.350;2023-08-12T11:59:31;4.00;;;2.90;;
1024;SDS011;501;48.214;11.350;2023-08-12T12:01:57;3.70;;;3.00;;
1024;SDS011;501;48.214;11.350;2023-08-12T12:04:26;3.47;;;3.17;;
1024;SDS011;501;48.214;11.350;2023-08-12T12:06:52;4.83;;;3.00;;
1024;SDS011;501;48.214;11.350;2023-08-12T12:09:17;3.47;;;3.17;;
1024;SDS011;501;48.214;11.350;2023-08-12T12:11:44;3.37;;;3.07;;
1024;SDS011;501;48.214;11.350;2023-08-12T12:14:10;4.30;;;3.00;;
1024;SDS011;501;48.214;11.350;2023-08-12T12:19:16;3.00;;;2.80;;
1024;SDS011;501;48.214;11.350;2023-08-12T12:21:44;3.60;;;3.40;;
1024;SDS011;501;48.214;11.350;2023-08-12T12:24:18;4.60;;;3.67;;
1024;SDS011;501;48.214;11.350;2023-08-12T12:26:44;4.00;;;2.83;;
1024;SDS011;501;48.214;11.350;2023-08-12T12:29:10;2.97;;;2.77;;
1024;SDS011;501;48.214;11.350;2023-08-12T12:31:39;3.20;;;3.00;;
1024;SDS011;501;48.214;11.350;2023-08-12T12:34:06;7.83;;;3.03;;
1024;SDS011;501;48.214;11.350;2023-08-12T12:36:34;3.03;;;2.73;;
1024;SDS011;501;48.214;11.350;2023-08-12T12:39:01;5.70;;;2.77;;
1024;SDS011;501;48.214;11.350;2023-08-12T12:41:28;3.53;;;2.83;;
1024;SDS011;501;48.214;11.350;2023-08-12T12:43:54;3.53;;;3.23;;
1024;SDS011;501;48.214;11.350;2023-08-12T12:46:19;2.83;;;2.63;;
1024;SDS011;501;48.214;11.350;2023-08-12T12:48:45;5.67;;;2.27;;
1024;SDS011;501;48.214;11.350;2023-08-12T12:51:11;2.73;;;2.53;;
1024;SDS011;501;48.214;11.350;2023-08-12T12:53:37;2.90;;;2.37;;
1024;SDS011;501;48.214;11.350;2023-08-12T12:56:03;5.00;;;2.43;;
1024;SDS011;501;48.214;11.350;2023-08-12T12:58:32;3.03;;;2.77;;
1024;SDS011;501;48.214;11.350;2023-08-12T13:00:59;2.87;;;2.37;;
1024;SDS011;501;48.214;11.350;2023-08-12T13:03:25;3.20;;;2.90;;
1024;SDS011;501;48.214;11.350;2023-08-12T13:05:51;4.13;;;2.60;;
1024;SDS011;501;48.214;11.350;2023-08-12T13:08:17;2.70;;;2.50;;
1024;SDS011;501;48.214;11.350;2023-08-12T13:10:43;2.87;;;2.37;;
1024;SDS011;501;48.214;11.350;2023-08-12T13:13:08;3.93;;;3.23;;
1024;SDS011;501;48.214;11.350;2023-08-12T13:15:34;3.13;;;2.87;;
1024;SDS011;501;48.214;11.350;2023-08-12T13:18:00;2.80;;;2.60;;
1024;SDS011;501;48.214;11.350;2023-08-12T13:20:26;3.13;;;2.93;;
1024;SDS011;501;48.214;11.350;2023-08-12T13:22:52;2.93;;;2.73;;
1024;SDS011;501;48.214;11.350;2023-08-12T13:25:17;4.30;;;2.87;;
1024;SDS011;501;48.214;11.350;2023-08-12T13:27:43;3.20;;;2.90;;
1024;SDS011;501;48.214;11.350;2023-08-12T13:30:09;3.57;;;3.00;;
1024;SDS011;501;48.214;11.350;2023-08-12T13:32:36;3.23;;;2.77;;
1024;SDS011;501;48.214;11.350;2023-08-12T13:35:02;3.33;;;3.10;;
1024;SDS011;501;48.214;11.350;2023-08-12T13:37:28;3.20;;;3.00;;
1024;SDS011;501;48.214;11.350;2023-08-12T13:39:54;6.20;;;3.60;;
1024;SDS011;501;48.214;11.350;2023-08-12T13:42:20;3.60;;;3.30;;
1024;SDS011;501;48.214;11.350;2023-08-12T13:44:45;3.33;;;3.03;;
1024;SDS011;501;48.214;11.350;2023-08-12T13:47:11;4.03;;;3.63;;
1024;SDS011;501;48.214;11.350;2023-08-12T13:49:37;4.30;;;3.20;;
1024;SDS011;501;48.214;11.350;2023-08-12T13:52:02;4.60;;;3.13;;
1024;SDS011;501;48.214;11.350;2023-08-12T13:54:28;3.60;;;3.40;;
1024;SDS011;501;48.214;11.350;2023-08-12T13:56:54;4.00;;;3.60;;
1024;SDS011;501;48.214;11.350;2023-08-12T13:59:19;3.17;;;2.87;;
1024;SDS011;501;48.214;11.350;2023-08-12T14:01:45;3.17;;;2.87;;
1024;SDS011;501;48.214;11.350;2023-08-12T14:04:11;3.67;;;3.47;;
1024;SDS011;501;48.214;11.350;2023-08-12T14:06:37;3.50;;;3.20;;
1024;SDS011;501;48.214;11.350;2023-08-12T14:09:05;3.67;;;3.37;;
1024;SDS011;501;48.214;11.350;2023-08-12T14:11:32;4.83;;;4.33;;
1024;SDS011;501;48.214;11.350;2023-08-12T14:13:58;3.93;;;3.53;;
1024;SDS011;501;48.214;11.350;2023-08-12T14:16:24;3.97;;;3.57;;
1024;SDS011;501;48.214;11.350;2023-08-12T14:18:50;4.23;;;3.83;;
1024;SDS011;501;48.214;11.350;2023-08-12T14:21:16;8.60;;;3.80;;
1024;SDS011;501;48.214;11.350;2023-08-12T14:23:41;6.87;;;3.40;;
1024;SDS011;501;48.214;11.350;2023-08-12T14:26:07;5.90;;;3.60;;
1024;SDS011;501;48.214;11.350;2023-08-12T14:28:33;4.60;;;3.30;;
1024;SDS011;501;48.214;11.350;2023-08-12T14:30:58;3.90;;;3.60;;
1024;SDS011;501;48.214;11.350;2023-08-12T14:33:24;3.70;;;3.40;;
1024;SDS011;501;48.214;11.350;2023-08-12T14:35:50;5.47;;;3.77;;
1024;SDS011;501;48.214;11.350;2023-08-12T14:38:17;4.70;;;4.00;;
1024;SDS011;501;48.214;11.350;2023-08-12T14:40:47;3.70;;;3.40;;
1024;SDS011;501;48.214;11.350;2023-08-12T14:43:13;7.53;;;3.77;;
1024;SDS011;501;48.214;11.350;2023-08-12T14:45:38;3.20;;;2.90;;
1024;SDS011;501;48.214;11.350;2023-08-12T14:48:04;3.50;;;3.20;;
1024;SDS011;501;48.214;11.350;2023-08-12T14:50:30;10.80;;;3.50;;
1024;SDS011;501;48.214;11.350;2023-08-12T14:52:56;3.70;;;3.00;;
1024;SDS011;501;48.214;11.350;2023-08-12T14:55:21;5.33;;;3.00;;
1024;SDS011;501;48.214;11.350;2023-08-12T14:57:47;4.20;;;3.57;;
1024;SDS011;501;48.214;11.350;2023-08-12T15:00:13;4.13;;;3.33;;
1024;SDS011;501;48.214;11.350;2023-08-12T15:02:39;4.40;;;3.43;;
1024;SDS011;501;48.214;11.350;2023-08-12T15:05:05;3.50;;;3.10;;
1024;SDS011;501;48.214;11.350;2023-08-12T15:07:31;2.73;;;2.40;;
1024;SDS011;501;48.214;11.350;2023-08-12T15:09:57;3.67;;;3.33;;
1024;SDS011;501;48.214;11.350;2023-08-12T15:12:24;3.30;;;3.00;;
1024;SDS011;501;48.214;11.350;2023-08-12T15:14:50;4.50;;;3.50;;
1024;SDS011;501;48.214;11.350;2023-08-12T15:17:15;5.70;;;3.07;;
1024;SDS011;501;48.214;11.350;2023-08-12T15:19:41;5.13;;;3.47;;